Terminal Aerodrome Forecast
Issued by NWS Binghamton, NY

Home | Current Version | Previous Version | Text Only | Print | Product List | Glossary On
Versions: 1 2 3 4 5 6 7 8 9 10 11 12 13 14 15 16 17 18 19 20
000
FTUS41 KBGM 221900 AAA
TAFAVP
TAF AMD
KAVP 221929Z 2219/2318 15007KT P6SM SCT025
     FM222200 15007KT P6SM BKN030 OVC100
      TEMPO 2223/2302 5SM -DZ OVC015
     FM230200 09004KT 5SM -RA OVC012 WS020/13035KT
     FM231400 09010KT P6SM -SHRA SCT008 OVC012=

USA.gov is the U.S. government's official web portal to all federal, state and local government web resources and services.